createdAt,value
2019-03-13T00:01:05.823Z,13.00
2019-03-13T00:03:34.675Z,14.43
2019-03-13T00:06:03.599Z,14.05
2019-03-13T00:08:32.409Z,13.58
2019-03-13T00:11:01.244Z,15.50
2019-03-13T00:13:30.172Z,13.22
2019-03-13T00:15:59.050Z,13.38
2019-03-13T00:18:27.901Z,13.10
2019-03-13T00:20:56.900Z,12.28
2019-03-13T00:23:25.756Z,11.80
2019-03-13T00:25:54.607Z,10.45
2019-03-13T00:28:23.516Z,11.78
2019-03-13T00:30:52.397Z,10.48
2019-03-13T00:33:21.178Z,10.00
2019-03-13T00:35:50.159Z,9.58
2019-03-13T00:38:19.008Z,9.05
2019-03-13T00:40:47.882Z,9.15
2019-03-13T00:43:16.783Z,9.25
2019-03-13T00:45:46.183Z,9.18
2019-03-13T00:48:15.015Z,9.88
2019-03-13T00:50:43.877Z,9.90
2019-03-13T00:53:12.685Z,9.75
2019-03-13T00:55:41.506Z,10.53
2019-03-13T00:58:10.418Z,10.80
2019-03-13T01:00:49.629Z,10.90
2019-03-13T01:03:29.283Z,10.35
2019-03-13T01:06:08.908Z,11.28
2019-03-13T01:08:37.910Z,10.80
2019-03-13T01:11:06.891Z,12.13
2019-03-13T01:13:35.893Z,11.25
2019-03-13T01:16:04.899Z,12.53
2019-03-13T01:18:33.792Z,13.03
2019-03-13T01:21:02.788Z,13.80
2019-03-13T01:23:31.778Z,14.18
2019-03-13T01:26:00.794Z,14.47
2019-03-13T01:28:29.678Z,15.05
2019-03-13T01:31:00.190Z,14.83
2019-03-13T01:33:29.097Z,13.72
2019-03-13T01:35:59.638Z,12.82
2019-03-13T01:38:47.970Z,12.60
2019-03-13T01:41:16.965Z,11.93
2019-03-13T01:43:45.800Z,12.95
2019-03-13T01:46:15.066Z,12.25
2019-03-13T01:48:43.895Z,11.75
2019-03-13T01:51:12.853Z,11.83
2019-03-13T01:53:41.853Z,11.30
2019-03-13T01:56:10.843Z,12.18
2019-03-13T01:58:39.743Z,12.18
2019-03-13T02:01:08.913Z,11.45
2019-03-13T02:03:38.152Z,11.68
2019-03-13T02:06:07.144Z,12.07
2019-03-13T02:08:36.246Z,11.53
2019-03-13T02:11:05.134Z,13.30
2019-03-13T02:13:33.898Z,14.53
2019-03-13T02:16:02.927Z,13.83
2019-03-13T02:18:31.920Z,14.55
2019-03-13T02:21:00.821Z,13.30
2019-03-13T02:23:29.817Z,13.68
2019-03-13T02:25:58.815Z,13.20
2019-03-13T02:28:27.711Z,12.43
2019-03-13T02:30:56.552Z,16.62
2019-03-13T02:33:25.313Z,17.12
2019-03-13T02:35:54.163Z,15.95
2019-03-13T02:38:22.986Z,15.65
2019-03-13T02:40:51.773Z,22.70
2019-03-13T02:43:20.542Z,21.42
2019-03-13T02:45:49.448Z,19.87
2019-03-13T02:48:18.462Z,20.57
2019-03-13T02:50:47.454Z,19.75
2019-03-13T02:53:16.452Z,18.85
2019-03-13T02:55:45.240Z,17.80
2019-03-13T02:58:14.133Z,16.67
2019-03-13T03:00:59.812Z,15.32
2019-03-13T03:03:30.260Z,15.13
2019-03-13T03:06:00.778Z,14.53
2019-03-13T03:08:29.781Z,14.87
2019-03-13T03:10:58.674Z,15.00
2019-03-13T03:13:27.560Z,15.93
2019-03-13T03:15:56.457Z,16.07
2019-03-13T03:18:25.454Z,17.77
2019-03-13T03:20:54.245Z,16.75
2019-03-13T03:23:23.145Z,18.17
2019-03-13T03:25:52.138Z,16.25
2019-03-13T03:28:21.028Z,15.25
2019-03-13T03:30:49.897Z,14.75
2019-03-13T03:33:18.744Z,15.13
2019-03-13T03:35:47.483Z,14.10
2019-03-13T03:38:16.406Z,14.35
2019-03-13T03:40:45.244Z,14.40
2019-03-13T03:43:14.054Z,13.32
2019-03-13T03:45:42.995Z,11.80
2019-03-13T03:48:11.828Z,12.63
2019-03-13T03:50:40.646Z,12.60
2019-03-13T03:53:09.482Z,12.37
2019-03-13T03:55:38.358Z,13.30
2019-03-13T03:58:07.115Z,13.68
2019-03-13T04:03:12.209Z,14.33
2019-03-13T04:05:41.006Z,13.68
2019-03-13T04:08:10.204Z,13.38
2019-03-13T04:10:39.205Z,12.85
2019-03-13T04:13:08.306Z,12.50
2019-03-13T04:15:37.110Z,11.63
2019-03-13T04:18:05.906Z,12.45
2019-03-13T04:20:35.883Z,10.95
2019-03-13T04:23:06.441Z,11.40
2019-03-13T04:25:35.330Z,11.22
2019-03-13T04:28:04.745Z,10.95
2019-03-13T04:30:33.742Z,11.55
2019-03-13T04:33:02.737Z,12.80
2019-03-13T04:35:31.832Z,12.82
2019-03-13T04:38:00.781Z,11.73
2019-03-13T04:40:29.828Z,12.28
2019-03-13T04:42:58.717Z,11.70
2019-03-13T04:45:27.619Z,11.78
2019-03-13T04:47:56.442Z,11.70
2019-03-13T04:50:25.229Z,11.10
2019-03-13T04:52:54.023Z,11.53
2019-03-13T04:55:22.918Z,11.78
2019-03-13T04:57:51.727Z,11.25
2019-03-13T05:00:21.997Z,11.30
2019-03-13T05:02:50.946Z,10.80
2019-03-13T05:05:37.486Z,10.78
2019-03-13T05:08:06.400Z,10.08
2019-03-13T05:10:35.237Z,9.73
2019-03-13T05:13:04.123Z,9.65
2019-03-13T05:15:32.987Z,9.13
2019-03-13T05:18:01.832Z,8.80
2019-03-13T05:20:30.617Z,9.80
2019-03-13T05:22:59.439Z,8.58
2019-03-13T05:25:28.294Z,9.58
2019-03-13T05:27:57.131Z,8.88
2019-03-13T05:30:26.046Z,9.20
2019-03-13T05:32:54.864Z,9.43
2019-03-13T05:35:23.686Z,10.10
2019-03-13T05:37:52.582Z,11.63
2019-03-13T05:40:21.392Z,11.90
2019-03-13T05:42:50.166Z,12.63
2019-03-13T05:45:18.992Z,13.25
2019-03-13T05:47:47.730Z,14.03
2019-03-13T05:50:16.604Z,14.65
2019-03-13T05:52:45.455Z,12.33
2019-03-13T05:55:14.263Z,12.30
2019-03-13T05:57:43.036Z,12.93
2019-03-13T06:00:14.078Z,12.35
2019-03-13T06:02:42.945Z,12.80
2019-03-13T06:05:11.732Z,12.78
2019-03-13T06:07:40.557Z,12.65
2019-03-13T06:10:11.220Z,12.13
2019-03-13T06:12:40.216Z,11.78
2019-03-13T06:15:11.250Z,11.53
2019-03-13T06:17:40.126Z,11.12
2019-03-13T06:20:12.132Z,11.60
2019-03-13T06:22:41.040Z,10.72
2019-03-13T06:25:11.403Z,11.83
2019-03-13T06:27:40.312Z,12.05
2019-03-13T06:30:12.114Z,13.53
2019-03-13T06:32:40.867Z,13.40
2019-03-13T06:35:10.304Z,13.00
2019-03-13T06:37:39.120Z,12.73
2019-03-13T06:40:12.965Z,13.93
2019-03-13T06:42:41.806Z,13.93
2019-03-13T06:45:13.555Z,15.05
2019-03-13T06:47:42.401Z,14.35
2019-03-13T06:50:13.893Z,13.58
2019-03-13T06:52:42.740Z,14.45
2019-03-13T06:55:11.586Z,14.45
2019-03-13T06:57:40.388Z,14.80
2019-03-13T07:00:27.634Z,14.18
2019-03-13T07:03:04.065Z,12.15
2019-03-13T07:05:50.817Z,15.40
2019-03-13T07:08:26.934Z,11.78
2019-03-13T07:11:03.428Z,9.58
2019-03-13T07:13:33.885Z,10.48
2019-03-13T07:16:04.303Z,10.18
2019-03-13T07:18:37.514Z,10.45
2019-03-13T07:21:13.471Z,11.37
2019-03-13T07:23:43.928Z,11.00
2019-03-13T07:26:20.422Z,10.70
2019-03-13T07:29:12.170Z,10.38
2019-03-13T07:31:54.912Z,10.03
2019-03-13T07:34:34.410Z,10.05
2019-03-13T07:37:07.549Z,10.82
2019-03-13T07:39:41.023Z,11.93
2019-03-13T07:42:11.539Z,10.85
2019-03-13T07:44:41.962Z,11.40
2019-03-13T07:47:30.811Z,12.90
2019-03-13T07:50:03.993Z,11.90
2019-03-13T07:52:34.490Z,8.27
2019-03-13T07:55:07.918Z,10.70
2019-03-13T07:57:41.354Z,11.20
2019-03-13T08:00:13.652Z,10.65
2019-03-13T08:02:44.120Z,10.38
2019-03-13T08:05:20.735Z,10.53
2019-03-13T08:08:06.232Z,11.08
2019-03-13T08:10:42.727Z,12.55
2019-03-13T08:13:13.147Z,12.05
2019-03-13T08:15:55.868Z,12.88
2019-03-13T08:18:32.092Z,14.68
2019-03-13T08:21:02.599Z,13.83
2019-03-13T08:23:38.936Z,15.05
2019-03-13T08:26:09.417Z,13.60
2019-03-13T08:28:48.796Z,13.60
2019-03-13T08:31:19.241Z,12.58
2019-03-13T08:33:59.969Z,13.75
2019-03-13T08:36:36.081Z,14.35
2019-03-13T08:39:24.579Z,12.95
2019-03-13T08:41:58.070Z,12.90
2019-03-13T08:44:34.598Z,14.68
2019-03-13T08:47:21.569Z,13.68
2019-03-13T08:50:04.139Z,13.58
2019-03-13T08:52:34.625Z,12.75
2019-03-13T08:55:17.364Z,13.88
2019-03-13T08:57:50.861Z,14.45
2019-03-13T09:00:23.753Z,13.90
2019-03-13T09:02:54.172Z,14.23
2019-03-13T09:05:33.308Z,13.18
2019-03-13T09:08:15.849Z,14.15
2019-03-13T09:11:01.680Z,13.32
2019-03-13T09:13:35.120Z,11.88
2019-03-13T09:16:08.698Z,15.70
2019-03-13T09:18:41.797Z,13.90
2019-03-13T09:21:18.111Z,12.28
2019-03-13T09:23:51.586Z,11.93
2019-03-13T09:26:34.284Z,14.63
2019-03-13T09:29:04.712Z,13.48
2019-03-13T09:31:35.094Z,15.50
2019-03-13T09:34:17.540Z,17.15
2019-03-13T09:37:04.444Z,13.85
2019-03-13T09:39:47.136Z,15.13
2019-03-13T09:42:26.378Z,14.33
2019-03-13T09:45:02.672Z,14.07
2019-03-13T09:47:42.345Z,14.83
2019-03-13T09:50:19.349Z,15.35
2019-03-13T09:52:52.970Z,14.63
2019-03-13T09:55:32.723Z,15.88
2019-03-13T09:58:03.150Z,15.25
2019-03-13T10:00:36.589Z,16.17
2019-03-13T10:03:22.416Z,16.02
2019-03-13T10:06:01.746Z,14.55
2019-03-13T10:08:41.085Z,14.40
2019-03-13T10:11:14.264Z,14.75
2019-03-13T10:13:47.447Z,14.50
2019-03-13T10:16:17.877Z,13.28
2019-03-13T10:19:06.669Z,13.93
2019-03-13T10:21:40.239Z,14.20
2019-03-13T10:24:13.444Z,14.93
2019-03-13T10:27:01.850Z,11.83
2019-03-13T10:29:35.398Z,15.53
2019-03-13T10:32:05.884Z,14.90
2019-03-13T10:34:51.506Z,14.73
2019-03-13T10:37:38.364Z,13.95
2019-03-13T10:40:11.070Z,14.35
2019-03-13T10:42:47.285Z,14.35
2019-03-13T10:45:23.820Z,13.45
2019-03-13T10:47:54.232Z,14.10
2019-03-13T10:50:30.931Z,14.95
2019-03-13T10:53:04.156Z,13.72
2019-03-13T10:55:37.450Z,14.60
2019-03-13T10:58:07.858Z,13.87
2019-03-13T11:00:38.278Z,14.13
2019-03-13T11:03:27.031Z,15.48
2019-03-13T11:05:57.568Z,14.53
2019-03-13T11:08:30.827Z,13.50
2019-03-13T11:11:01.295Z,13.73
2019-03-13T11:13:48.053Z,14.38
2019-03-13T11:16:21.220Z,14.13
2019-03-13T11:18:52.488Z,15.40
2019-03-13T11:21:22.958Z,15.25
2019-03-13T11:23:53.629Z,14.20
2019-03-13T11:26:40.643Z,13.65
2019-03-13T11:29:20.333Z,15.23
2019-03-13T11:32:02.966Z,15.35
2019-03-13T11:34:33.393Z,15.80
2019-03-13T11:37:20.057Z,16.55
2019-03-13T11:40:07.151Z,14.18
2019-03-13T11:42:46.579Z,15.00
2019-03-13T11:45:29.237Z,15.48
2019-03-13T11:48:16.411Z,14.45
2019-03-13T11:51:03.362Z,13.93
2019-03-13T11:53:36.556Z,14.05
2019-03-13T11:56:12.527Z,14.03
2019-03-13T11:58:45.976Z,14.33
2019-03-13T12:01:17.536Z,13.03
2019-03-13T12:03:57.060Z,13.80
2019-03-13T12:06:43.868Z,14.15
2019-03-13T12:09:23.242Z,12.93
2019-03-13T12:12:12.303Z,13.03
2019-03-13T12:14:59.043Z,13.38
2019-03-13T12:17:29.505Z,14.98
2019-03-13T12:19:59.980Z,14.33
2019-03-13T12:22:46.613Z,14.65
2019-03-13T12:25:33.422Z,13.88
2019-03-13T12:28:06.902Z,14.13
2019-03-13T12:30:37.386Z,14.00
2019-03-13T12:33:10.337Z,14.38
2019-03-13T12:35:46.191Z,13.38
2019-03-13T12:38:28.460Z,14.25
2019-03-13T12:41:04.692Z,15.23
2019-03-13T12:43:38.034Z,14.58
2019-03-13T12:46:24.590Z,14.95
2019-03-13T12:48:56.397Z,14.85
2019-03-13T12:51:32.800Z,14.68
2019-03-13T12:54:19.580Z,16.07
2019-03-13T12:56:50.144Z,15.68
2019-03-13T12:59:37.218Z,14.55
2019-03-13T13:02:19.752Z,14.38
2019-03-13T13:04:50.267Z,13.10
2019-03-13T13:07:23.394Z,13.62
2019-03-13T13:09:53.914Z,13.43
2019-03-13T13:12:29.848Z,12.55
2019-03-13T13:15:19.086Z,12.45
2019-03-13T13:17:54.984Z,12.40
2019-03-13T13:20:24.283Z,12.80
2019-03-13T13:22:53.304Z,13.38
2019-03-13T13:25:22.045Z,12.30
2019-03-13T13:27:50.955Z,12.40
2019-03-13T13:30:19.834Z,12.93
2019-03-13T13:32:48.665Z,13.08
2019-03-13T13:35:17.585Z,13.22
2019-03-13T13:37:46.368Z,11.22
2019-03-13T13:40:17.037Z,12.82
2019-03-13T13:42:45.948Z,13.08
2019-03-13T13:45:23.368Z,12.95
2019-03-13T13:47:52.337Z,15.55
2019-03-13T13:50:21.330Z,14.03
2019-03-13T13:52:50.242Z,13.25
2019-03-13T13:55:19.248Z,12.80
2019-03-13T13:57:48.074Z,11.38
2019-03-13T14:00:16.968Z,11.05
2019-03-13T14:02:45.876Z,11.70
2019-03-13T14:05:14.733Z,12.40
2019-03-13T14:07:43.563Z,12.68
2019-03-13T14:10:15.349Z,12.43
2019-03-13T14:12:44.185Z,12.60
2019-03-13T14:15:14.826Z,12.75
2019-03-13T14:17:43.705Z,14.50
2019-03-13T14:20:14.697Z,13.90
2019-03-13T14:22:43.609Z,12.98
2019-03-13T14:25:14.016Z,15.50
2019-03-13T14:27:44.570Z,12.47
2019-03-13T14:30:18.404Z,13.08
2019-03-13T14:32:47.236Z,13.30
2019-03-13T14:35:16.276Z,12.20
2019-03-13T14:37:45.065Z,12.55
2019-03-13T14:40:16.402Z,12.28
2019-03-13T14:42:45.221Z,11.70
2019-03-13T14:45:18.848Z,12.58
2019-03-13T14:47:47.692Z,12.15
2019-03-13T14:50:18.949Z,13.18
2019-03-13T14:52:47.838Z,12.25
2019-03-13T14:55:18.453Z,13.05
2019-03-13T14:57:47.482Z,12.80
2019-03-13T15:00:21.271Z,12.78
2019-03-13T15:02:50.178Z,13.05
2019-03-13T15:05:19.050Z,13.25
2019-03-13T15:07:47.981Z,13.45
2019-03-13T15:10:22.209Z,14.43
2019-03-13T15:12:51.060Z,14.63
2019-03-13T15:15:24.194Z,14.95
2019-03-13T15:17:53.649Z,12.03
2019-03-13T15:20:29.628Z,15.28
2019-03-13T15:22:58.664Z,15.80
2019-03-13T15:25:27.506Z,15.13
2019-03-13T15:27:56.398Z,16.27
2019-03-13T15:30:28.190Z,16.02
2019-03-13T15:32:57.193Z,17.17
2019-03-13T15:35:26.109Z,15.18
2019-03-13T15:37:54.997Z,17.20
2019-03-13T15:40:23.846Z,15.53
2019-03-13T15:42:52.749Z,15.03
2019-03-13T15:45:30.123Z,16.67
2019-03-13T15:47:58.985Z,16.87
2019-03-13T15:50:27.908Z,16.85
2019-03-13T15:52:56.919Z,16.82
2019-03-13T15:55:25.748Z,17.35
2019-03-13T15:57:54.622Z,18.40
2019-03-13T16:00:27.894Z,17.67
2019-03-13T16:02:56.797Z,17.73
2019-03-13T16:05:25.628Z,17.05
2019-03-13T16:07:54.518Z,16.80
2019-03-13T16:10:24.068Z,17.48
2019-03-13T16:12:54.590Z,17.15
2019-03-13T16:15:29.342Z,17.40
2019-03-13T16:17:58.160Z,18.25
2019-03-13T16:20:27.065Z,18.05
2019-03-13T16:23:02.484Z,19.35
2019-03-13T16:25:31.652Z,19.73
2019-03-13T16:28:00.474Z,20.10
2019-03-13T16:30:40.703Z,19.85
2019-03-13T16:33:09.566Z,19.05
2019-03-13T16:35:39.365Z,19.77
2019-03-13T16:38:08.286Z,20.05
2019-03-13T16:40:37.137Z,20.72
2019-03-13T16:43:06.001Z,21.00
2019-03-13T16:45:34.917Z,21.55
2019-03-13T16:48:03.791Z,23.30
2019-03-13T16:50:34.466Z,20.82
2019-03-13T16:53:03.386Z,22.42
2019-03-13T16:55:32.237Z,20.95
2019-03-13T16:58:01.023Z,21.15
2019-03-13T17:00:33.871Z,21.65
2019-03-13T17:03:02.757Z,22.30
2019-03-13T17:05:31.623Z,22.73
2019-03-13T17:08:00.475Z,21.37
2019-03-13T17:10:30.029Z,21.77
2019-03-13T17:12:58.910Z,22.00
2019-03-13T17:15:28.418Z,24.50
2019-03-13T17:17:57.283Z,23.05
2019-03-13T17:20:30.650Z,22.30
2019-03-13T17:22:59.582Z,24.23
2019-03-13T17:25:28.421Z,24.90
2019-03-13T17:27:57.261Z,24.72
2019-03-13T17:30:27.559Z,23.75
2019-03-13T17:32:56.534Z,24.80
2019-03-13T17:35:25.386Z,23.35
2019-03-13T17:37:55.403Z,24.10
2019-03-13T17:40:26.147Z,26.10
2019-03-13T17:42:55.019Z,26.23
2019-03-13T17:45:24.865Z,26.70
2019-03-13T17:47:54.300Z,23.98
2019-03-13T17:50:24.181Z,24.27
2019-03-13T17:52:53.317Z,25.52
2019-03-13T17:55:26.498Z,25.52
2019-03-13T17:57:55.278Z,27.30
2019-03-13T18:00:50.107Z,27.55
2019-03-13T18:03:19.203Z,27.05
2019-03-13T18:05:48.047Z,25.05
2019-03-13T18:08:16.852Z,26.33
2019-03-13T18:10:45.693Z,27.73
2019-03-13T18:13:14.478Z,27.95
2019-03-13T18:15:43.329Z,28.47
2019-03-13T18:18:12.092Z,27.37
2019-03-13T18:20:40.903Z,26.80
2019-03-13T18:23:09.784Z,26.97
2019-03-13T18:25:38.589Z,30.15
2019-03-13T18:28:07.412Z,27.80
2019-03-13T18:30:36.718Z,28.73
2019-03-13T18:33:05.922Z,29.65
2019-03-13T18:35:34.712Z,26.70
2019-03-13T18:38:03.567Z,25.75
2019-03-13T18:40:32.436Z,25.48
2019-03-13T18:43:01.232Z,24.60
2019-03-13T18:45:34.256Z,25.77
2019-03-13T18:48:03.030Z,24.20
2019-03-13T18:50:31.833Z,25.10
2019-03-13T18:53:00.630Z,25.70
2019-03-13T18:55:32.003Z,26.02
2019-03-13T18:58:01.370Z,27.15
2019-03-13T19:00:36.928Z,24.95
2019-03-13T19:03:07.694Z,24.00
2019-03-13T19:05:37.838Z,24.72
2019-03-13T19:08:07.335Z,22.98
2019-03-13T19:10:36.303Z,25.02
2019-03-13T19:13:05.373Z,23.27
2019-03-13T19:15:34.333Z,24.55
2019-03-13T19:18:22.477Z,23.38
2019-03-13T19:20:53.799Z,23.70
2019-03-13T19:23:21.867Z,23.92
2019-03-13T19:25:51.057Z,22.62
2019-03-13T19:28:20.188Z,23.50
2019-03-13T19:30:49.058Z,23.07
2019-03-13T19:33:17.844Z,22.85
2019-03-13T19:35:46.712Z,22.55
2019-03-13T19:38:15.967Z,24.10
2019-03-13T19:40:44.806Z,25.00
2019-03-13T19:43:13.731Z,23.65
2019-03-13T19:45:44.577Z,23.30
2019-03-13T19:48:13.463Z,23.15
2019-03-13T19:50:42.357Z,24.57
2019-03-13T19:53:11.208Z,26.23
2019-03-13T19:55:40.063Z,25.12
2019-03-13T19:58:08.999Z,25.10
2019-03-13T20:00:37.762Z,24.02
2019-03-13T20:03:12.150Z,24.82
2019-03-13T20:05:45.946Z,25.10
2019-03-13T20:08:13.930Z,24.75
2019-03-13T20:10:43.084Z,24.82
2019-03-13T20:13:12.012Z,24.32
2019-03-13T20:15:41.270Z,25.40
2019-03-13T20:18:10.183Z,23.45
2019-03-13T20:20:40.694Z,25.75
2019-03-13T20:23:16.751Z,26.10
2019-03-13T20:25:45.570Z,25.45
2019-03-13T20:28:14.825Z,23.20
2019-03-13T20:30:43.605Z,23.35
2019-03-13T20:33:12.400Z,25.12
2019-03-13T20:35:41.325Z,23.42
2019-03-13T20:38:10.182Z,24.80
2019-03-13T20:40:39.029Z,24.45
2019-03-13T20:43:07.809Z,23.02
2019-03-13T20:45:36.882Z,24.50
2019-03-13T20:48:05.791Z,24.02
2019-03-13T20:50:37.850Z,24.45
2019-03-13T20:53:07.170Z,24.23
2019-03-13T20:55:36.064Z,26.60
2019-03-13T20:58:04.877Z,25.08
2019-03-13T21:00:34.965Z,25.97
2019-03-13T21:03:04.046Z,25.35
2019-03-13T21:05:32.897Z,25.82
2019-03-13T21:08:01.756Z,24.57
2019-03-13T21:10:30.679Z,24.02
2019-03-13T21:12:59.495Z,24.45
2019-03-13T21:15:29.036Z,25.08
2019-03-13T21:17:57.924Z,24.85
2019-03-13T21:20:26.741Z,24.27
2019-03-13T21:22:58.100Z,25.02
2019-03-13T21:25:27.097Z,24.95
2019-03-13T21:27:55.979Z,27.52
2019-03-13T21:30:28.648Z,25.10
2019-03-13T21:33:27.248Z,24.27
2019-03-13T21:35:56.025Z,23.47
2019-03-13T21:38:24.859Z,24.87
2019-03-13T21:40:53.826Z,25.32
2019-03-13T21:43:22.597Z,24.52
2019-03-13T21:45:51.514Z,25.20
2019-03-13T21:48:20.512Z,25.10
2019-03-13T21:50:50.514Z,22.93
2019-03-13T21:53:19.720Z,24.02
2019-03-13T21:55:48.624Z,23.65
2019-03-13T21:58:17.490Z,24.43
2019-03-13T22:00:46.294Z,24.10
2019-03-13T22:03:27.692Z,24.65
2019-03-13T22:05:46.238Z,24.15
2019-03-13T22:08:15.024Z,24.35
2019-03-13T22:10:43.894Z,23.87
2019-03-13T22:13:12.738Z,24.65
2019-03-13T22:15:41.601Z,25.77
2019-03-13T22:18:10.446Z,25.08
2019-03-13T22:20:39.262Z,24.90
2019-03-13T22:23:08.081Z,24.15
2019-03-13T22:25:43.056Z,23.35
2019-03-13T22:28:11.917Z,23.73
2019-03-13T22:30:40.764Z,23.25
2019-03-13T22:33:09.659Z,23.30
2019-03-13T22:35:38.520Z,23.80
2019-03-13T22:38:07.308Z,25.77
2019-03-13T22:40:36.224Z,24.50
2019-03-13T22:43:05.105Z,23.18
2019-03-13T22:45:33.848Z,22.87
2019-03-13T22:48:02.656Z,23.90
2019-03-13T22:50:31.666Z,24.25
2019-03-13T22:53:00.573Z,24.37
2019-03-13T22:55:29.439Z,24.35
2019-03-13T22:57:58.294Z,24.80
2019-03-13T23:00:52.608Z,23.38
2019-03-13T23:03:22.860Z,23.20
2019-03-13T23:05:51.749Z,24.07
2019-03-13T23:08:20.608Z,23.73
2019-03-13T23:10:49.467Z,24.00
2019-03-13T23:13:18.258Z,23.55
2019-03-13T23:15:47.265Z,24.30
2019-03-13T23:18:18.354Z,23.40
2019-03-13T23:20:46.497Z,24.20
2019-03-13T23:23:15.336Z,23.83
2019-03-13T23:25:44.088Z,23.65
2019-03-13T23:28:12.971Z,23.35
2019-03-13T23:30:41.869Z,23.35
2019-03-13T23:33:10.676Z,26.15
2019-03-13T23:35:39.468Z,25.23
2019-03-13T23:38:08.289Z,26.17
2019-03-13T23:40:37.182Z,26.00
2019-03-13T23:43:05.962Z,27.75
2019-03-13T23:45:34.742Z,26.10
2019-03-13T23:48:03.634Z,27.50
2019-03-13T23:50:32.617Z,27.37
2019-03-13T23:53:01.771Z,27.85
2019-03-13T23:55:30.528Z,27.35
2019-03-13T23:57:59.306Z,27.05
